Time;durP1;ratioP1;P1;durP2;ratioP2;P2;SDS_P1;SDS_P2;PMS_P1;PMS_P2;Temp;Humidity;BMP_temperature;BMP_pressure;BME280_temperature;BME280_humidity;BME280_pressure;Samples;Min_cycle;Max_cycle;Signal;HPM_P1;HPM_P2
2022/05/23 00:00:11;;;;;;;4.70;4.28;;;;;;;9.71;73.91;93964.82;1632757;88;21314;-48
2022/05/23 00:02:37;;;;;;;6.62;5.10;;;;;;;9.75;73.79;93965.42;1632670;88;20966;-50
2022/05/23 00:05:06;;;;;;;5.75;4.45;;;;;;;9.78;73.89;93961.78;1607767;88;21001;-51
2022/05/23 00:07:40;;;;;;;5.20;4.10;;;;;;;9.82;73.83;93963.13;1632753;88;20993;-49
2022/05/23 00:10:08;;;;;;;6.00;4.03;;;;;;;9.81;73.54;93963.59;1632802;88;21022;-49
2022/05/23 00:12:39;;;;;;;4.72;3.98;;;;;;;9.76;73.63;93967.72;1632665;88;21125;-50
2022/05/23 00:15:09;;;;;;;5.87;4.28;;;;;;;9.77;74.10;93971.23;1632585;88;20955;-49
2022/05/23 00:17:36;;;;;;;4.53;4.12;;;;;;;9.79;74.02;93972.91;1632988;88;21450;-49
2022/05/23 00:20:05;;;;;;;4.67;4.25;;;;;;;9.77;73.93;93972.61;1632807;88;20974;-49
2022/05/23 00:22:32;;;;;;;7.22;4.25;;;;;;;9.76;74.18;93973.84;1633302;88;21025;-49
2022/05/23 00:25:00;;;;;;;6.00;4.35;;;;;;;9.71;74.15;93964.82;1632709;88;21761;-49
2022/05/23 00:27:27;;;;;;;5.08;4.40;;;;;;;9.67;74.08;93968.34;1632662;88;20982;-50
2022/05/23 00:29:55;;;;;;;5.30;4.30;;;;;;;9.62;73.98;93965.59;1632899;88;21029;-50
2022/05/23 00:35:17;;;;;;;6.08;4.97;;;;;;;9.52;74.53;93975.08;1632776;88;21041;-49
2022/05/23 00:37:47;;;;;;;5.60;5.05;;;;;;;9.53;74.75;93977.20;1632826;88;21474;-49
2022/05/23 00:40:46;;;;;;;4.90;4.30;;;;;;;9.50;74.95;93977.52;1608349;88;21006;-48
2022/05/23 00:43:20;;;;;;;6.47;4.58;;;;;;;9.51;74.99;93970.03;1630783;88;20997;-48
2022/05/23 00:45:55;;;;;;;4.50;4.10;;;;;;;9.51;75.06;93972.78;1632736;87;21536;-49
2022/05/23 00:48:25;;;;;;;5.92;4.12;;;;;;;9.55;74.81;93978.87;1632823;87;21018;-49
2022/05/23 00:50:59;;;;;;;5.17;3.90;;;;;;;9.59;74.55;93990.48;1609034;88;21249;-49
2022/05/23 00:53:31;;;;;;;5.58;4.35;;;;;;;9.58;74.28;93972.48;1608872;88;20966;-49
2022/05/23 00:55:58;;;;;;;4.10;3.80;;;;;;;9.56;74.55;93983.14;1633071;88;20970;-49
2022/05/23 00:58:32;;;;;;;4.37;3.87;;;;;;;9.61;74.63;93981.92;1632857;88;21481;-49
2022/05/23 01:01:02;;;;;;;4.40;4.00;;;;;;;9.66;74.74;93982.67;1632783;88;21134;-50
2022/05/23 01:03:29;;;;;;;4.90;4.50;;;;;;;9.71;74.85;93979.92;1633117;88;21037;-49
2022/05/23 01:05:56;;;;;;;4.33;3.90;;;;;;;9.74;74.65;93980.37;1607862;88;20966;-49
2022/05/23 01:08:24;;;;;;;6.03;4.22;;;;;;;9.76;74.58;93979.33;1632835;88;21450;-49
2022/05/23 01:10:53;;;;;;;4.60;4.20;;;;;;;9.77;74.38;93978.11;1609316;88;21476;-49
2022/05/23 01:13:19;;;;;;;5.75;3.98;;;;;;;9.75;74.43;93977.19;1632739;88;21027;-48
2022/05/23 01:15:48;;;;;;;7.42;4.40;;;;;;;9.68;74.47;93972.61;1608834;88;21514;-50
2022/05/23 01:18:17;;;;;;;5.53;4.50;;;;;;;9.61;74.60;93964.07;1632901;87;20974;-49
2022/05/23 01:20:45;;;;;;;6.95;4.83;;;;;;;9.60;74.49;93953.56;1633074;88;21019;-49
2022/05/23 01:23:35;;;;;;;4.20;3.70;;;;;;;9.61;74.58;93955.09;1632833;88;21525;-48
2022/05/23 01:26:07;;;;;;;4.22;3.90;;;;;;;9.63;74.42;93960.25;1631517;88;21609;-50
2022/05/23 01:28:38;;;;;;;4.70;4.30;;;;;;;9.65;74.53;93953.69;1631969;88;21182;-49
2022/05/23 01:31:06;;;;;;;5.78;4.30;;;;;;;9.65;74.49;93958.43;1633042;88;21014;-49
2022/05/23 01:33:33;;;;;;;4.33;3.98;;;;;;;9.57;74.62;93957.20;1632901;88;21454;-49
2022/05/23 01:36:00;;;;;;;5.85;4.30;;;;;;;9.55;74.98;93945.92;1632858;88;21078;-50
2022/05/23 01:38:27;;;;;;;4.92;4.42;;;;;;;9.57;74.84;93947.59;1632734;88;20978;-49
2022/05/23 01:40:57;;;;;;;4.95;4.08;;;;;;;9.56;74.85;93952.94;1632034;88;21431;-50
2022/05/23 01:43:25;;;;;;;6.62;4.00;;;;;;;9.62;74.75;93959.36;1632812;88;20990;-48
2022/05/23 01:45:53;;;;;;;5.12;4.70;;;;;;;9.64;74.79;93959.66;1607435;87;21351;-49
2022/05/23 01:48:22;;;;;;;8.83;4.85;;;;;;;9.67;75.01;93965.00;1632984;87;21058;-49
2022/05/23 01:50:49;;;;;;;5.05;4.45;;;;;;;9.73;75.18;93959.63;1635587;87;21557;-49
2022/05/23 01:53:16;;;;;;;5.42;4.53;;;;;;;9.75;75.08;93961.30;1635469;87;21190;-49
2022/05/23 01:55:50;;;;;;;5.90;3.87;;;;;;;9.78;75.29;93965.27;1625606;87;21038;-49
2022/05/23 02:01:12;;;;;;;7.42;3.72;;;;;;;9.83;75.32;93964.64;1635550;87;21525;-49
2022/05/23 02:03:35;;;;;;;4.15;3.77;;;;;;;9.92;75.37;93970.73;1635554;87;21470;-49
2022/05/23 02:06:02;;;;;;;5.65;4.30;;;;;;;10.02;75.16;93973.66;1635470;87;21238;-50
2022/05/23 02:08:29;;;;;;;4.62;4.12;;;;;;;10.06;74.83;93976.99;1635559;87;21076;-49
2022/05/23 02:10:56;;;;;;;4.35;4.03;;;;;;;10.04;74.64;93967.08;1635516;87;20986;-48
2022/05/23 02:13:35;;;;;;;4.33;3.95;;;;;;;9.98;74.77;93967.53;1634610;87;21066;-49
2022/05/23 02:16:05;;;;;;;4.12;3.80;;;;;;;9.88;75.20;93967.39;1614326;87;21407;-49
2022/05/23 02:18:40;;;;;;;4.25;3.80;;;;;;;9.85;75.46;93964.97;1635432;87;21170;-49
2022/05/23 02:21:06;;;;;;;6.30;4.55;;;;;;;9.87;75.26;93964.49;1635783;87;21022;-50
2022/05/23 02:23:35;;;;;;;4.47;4.08;;;;;;;9.87;75.21;93972.14;1635468;87;20962;-48
2022/05/23 02:26:02;;;;;;;4.40;4.00;;;;;;;9.88;75.34;93971.52;1635516;87;21127;-49
2022/05/23 02:28:43;;;;;;;4.75;4.35;;;;;;;9.87;75.46;93979.60;1634213;87;21049;-49
2022/05/23 02:31:12;;;;;;;5.60;5.10;;;;;;;9.86;75.93;93983.58;1634390;87;21239;-49
2022/05/23 02:33:43;;;;;;;3.80;3.50;;;;;;;9.91;75.96;93986.47;1633390;87;21009;-50
2022/05/23 02:36:20;;;;;;;4.33;3.90;;;;;;;9.99;75.59;93988.28;1634845;87;21014;-50
2022/05/23 02:38:47;;;;;;;4.80;4.08;;;;;;;9.99;75.17;93985.54;1635493;87;20995;-50
2022/05/23 02:41:14;;;;;;;4.33;3.80;;;;;;;9.98;75.08;93990.89;1635504;87;21093;-49
2022/05/23 02:43:42;;;;;;;3.85;3.45;;;;;;;10.00;75.10;93985.69;1613233;87;21262;-49
2022/05/23 02:46:13;;;;;;;4.47;3.98;;;;;;;10.01;74.63;93991.33;1633981;87;21491;-49
2022/05/23 02:48:43;;;;;;;6.17;3.90;;;;;;;9.99;74.93;93988.28;1632426;88;21073;-48
2022/05/23 02:51:09;;;;;;;7.87;4.45;;;;;;;9.96;75.04;93991.97;1632764;88;21077;-50
2022/05/23 02:53:37;;;;;;;7.17;4.12;;;;;;;9.96;75.10;93989.96;1632693;88;21080;-49
2022/05/23 02:56:04;;;;;;;7.80;4.00;;;;;;;9.96;75.38;93993.33;1632796;88;21824;-49
2022/05/23 02:58:31;;;;;;;7.58;4.58;;;;;;;9.93;75.67;93990.11;1632715;88;21028;-49
2022/05/23 03:00:57;;;;;;;10.88;5.12;;;;;;;9.87;75.98;93987.84;1632778;88;20975;-49
2022/05/23 03:03:26;;;;;;;6.55;5.33;;;;;;;9.82;76.27;93985.09;1632830;88;21001;-48
2022/05/23 03:05:55;;;;;;;8.45;4.67;;;;;;;9.79;76.51;93986.02;1631536;88;21063;-49
2022/05/23 03:08:25;;;;;;;7.22;4.60;;;;;;;9.77;76.67;93989.09;1609039;88;21976;-49
2022/05/23 03:10:54;;;;;;;6.45;5.03;;;;;;;9.78;77.12;93992.73;1632960;88;21065;-50
2022/05/23 03:13:25;;;;;;;5.70;5.00;;;;;;;9.80;77.55;93986.80;1609994;88;20974;-49
2022/05/23 03:15:53;;;;;;;5.17;4.67;;;;;;;9.88;77.77;93992.11;1632927;88;21269;-49
2022/05/23 03:18:21;;;;;;;6.05;5.03;;;;;;;9.92;78.07;93987.22;1632774;88;21033;-48
2022/05/23 03:21:06;;;;;;;7.35;4.78;;;;;;;9.98;78.11;93984.77;1632797;88;21167;-49
2022/05/23 03:29:09;;;;;;;11.20;6.53;;;;;;;10.01;77.12;93980.34;1632784;88;21061;-50
2022/05/23 03:31:38;;;;;;;7.72;5.72;;;;;;;10.01;77.06;93984.47;1633039;88;20981;-50
2022/05/23 03:34:06;;;;;;;8.28;6.25;;;;;;;10.04;76.83;93980.82;1632850;88;21178;-49
2022/05/23 03:36:33;;;;;;;8.75;6.33;;;;;;;10.06;76.93;93985.23;1632891;88;21426;-48
2022/05/23 03:39:03;;;;;;;6.45;5.45;;;;;;;10.09;77.23;93992.55;1632759;88;21478;-50
2022/05/23 03:41:30;;;;;;;8.93;6.20;;;;;;;10.10;77.12;93994.08;1632672;88;21010;-50
2022/05/23 03:43:57;;;;;;;9.18;5.78;;;;;;;10.10;77.11;93989.36;1604484;88;20958;-49
2022/05/23 03:46:24;;;;;;;5.42;4.92;;;;;;;10.13;76.96;93987.68;1632568;87;21243;-49
2022/05/23 03:48:51;;;;;;;5.95;5.00;;;;;;;10.14;77.06;93981.70;1632878;88;21530;-50
2022/05/23 03:51:20;;;;;;;6.45;4.67;;;;;;;10.11;76.68;93979.88;1632638;88;20999;-50
2022/05/23 03:53:47;;;;;;;5.92;5.03;;;;;;;10.10;76.81;93978.36;1608685;88;21458;-49
2022/05/23 03:56:14;;;;;;;6.92;5.45;;;;;;;10.11;76.77;93982.63;1632654;88;21041;-51
2022/05/23 03:58:46;;;;;;;6.33;5.43;;;;;;;10.14;76.90;93987.83;1632946;88;21018;-50
2022/05/23 04:01:21;;;;;;;5.47;4.97;;;;;;;10.19;76.95;93989.94;1632635;88;20998;-51
2022/05/23 04:03:49;;;;;;;7.10;5.17;;;;;;;10.24;77.03;93986.56;1632711;88;21017;-50
2022/05/23 04:06:16;;;;;;;6.05;5.03;;;;;;;10.27;77.01;93985.03;1632719;88;20974;-50
2022/05/23 04:08:45;;;;;;;6.53;5.20;;;;;;;10.26;77.01;93981.36;1631316;88;21626;-50
2022/05/23 04:11:13;;;;;;;5.45;4.65;;;;;;;10.18;77.20;93982.30;1632640;88;21262;-49
2022/05/23 04:13:39;;;;;;;5.95;4.37;;;;;;;10.19;77.33;93985.83;1632604;88;21061;-51
2022/05/23 04:16:06;;;;;;;5.33;4.60;;;;;;;10.23;77.55;93991.91;1632885;88;21438;-49
2022/05/23 04:18:34;;;;;;;8.00;5.20;;;;;;;10.26;77.51;93987.63;1632667;88;21034;-49
2022/05/23 04:21:01;;;;;;;5.67;5.10;;;;;;;10.29;77.64;93981.20;1632648;88;21056;-49
2022/05/23 04:23:28;;;;;;;6.05;5.03;;;;;;;10.31;77.58;93978.00;1632652;88;21155;-49
2022/05/23 04:25:59;;;;;;;5.75;5.15;;;;;;;10.28;77.66;93967.91;1632519;88;20954;-48
2022/05/23 04:28:26;;;;;;;4.30;3.92;;;;;;;10.31;77.82;93971.13;1609541;88;20914;-49
2022/05/23 04:30:54;;;;;;;7.17;3.92;;;;;;;10.41;77.44;93976.12;1632651;88;21018;-47
2022/05/23 04:36:08;;;;;;;15.15;6.72;;;;;;;10.52;76.91;93966.75;1632769;88;21275;-48
2022/05/23 04:38:36;;;;;;;10.58;5.92;;;;;;;10.62;77.12;93971.59;1632472;87;21446;-49
2022/05/23 04:41:07;;;;;;;8.73;6.20;;;;;;;10.73;76.98;93973.23;1632607;88;20978;-49
2022/05/23 04:43:35;;;;;;;8.30;5.78;;;;;;;10.81;76.69;93977.92;1608681;88;20986;-49
2022/05/23 04:46:02;;;;;;;7.97;5.60;;;;;;;10.89;76.45;93973.59;1632544;87;21076;-53
2022/05/23 04:51:31;;;;;;;6.20;4.62;;;;;;;10.98;76.06;93972.92;1632635;88;21017;-48
2022/05/23 04:53:59;;;;;;;8.38;5.10;;;;;;;11.05;75.46;93964.33;1632539;88;21052;-48
2022/05/23 04:56:27;;;;;;;15.08;5.28;;;;;;;11.09;75.42;93973.17;1632576;88;20994;-49
2022/05/23 04:58:56;;;;;;;6.28;5.12;;;;;;;11.16;75.11;93967.30;1632435;88;21002;-49
2022/05/23 05:01:22;;;;;;;6.35;4.65;;;;;;;11.19;74.63;93966.36;1633030;88;21219;-50
2022/05/23 05:03:53;;;;;;;7.42;4.70;;;;;;;11.21;74.58;93961.77;1632611;88;21462;-49
2022/05/23 05:06:22;;;;;;;9.45;5.12;;;;;;;11.24;73.98;93961.60;1632557;88;21057;-49
2022/05/23 05:08:49;;;;;;;7.05;4.92;;;;;;;11.33;74.06;93965.65;1633017;88;21088;-50
2022/05/23 05:11:16;;;;;;;5.35;4.50;;;;;;;11.42;73.54;93964.22;1632566;88;21132;-50
2022/05/23 05:13:45;;;;;;;21.20;6.05;;;;;;;11.44;73.24;93960.38;1606066;88;21139;-50
2022/05/23 05:16:13;;;;;;;14.58;6.47;;;;;;;11.44;73.16;93961.75;1608185;88;21072;-50
2022/05/23 05:18:41;;;;;;;7.72;5.47;;;;;;;11.41;73.33;93961.31;1632557;88;21181;-51
2022/05/23 05:21:26;;;;;;;6.85;5.28;;;;;;;11.42;73.28;93965.59;1626615;88;21074;-50
2022/05/23 05:23:57;;;;;;;7.60;4.60;;;;;;;11.42;73.50;93955.95;1592313;88;21080;-48
2022/05/23 05:26:29;;;;;;;6.78;5.03;;;;;;;11.49;73.17;93957.59;1628281;88;21058;-49
2022/05/23 05:28:55;;;;;;;8.75;5.58;;;;;;;11.56;72.54;93959.36;1632839;88;20981;-51
2022/05/23 05:31:38;;;;;;;8.73;5.17;;;;;;;11.61;72.31;93950.47;1632487;87;21014;-50
2022/05/23 05:34:13;;;;;;;6.95;5.28;;;;;;;11.64;71.99;93950.12;1606399;89;21612;-52
2022/05/23 05:36:43;;;;;;;14.83;5.42;;;;;;;11.68;71.91;93948.70;1614886;86;21021;-53
2022/05/23 05:39:10;;;;;;;7.72;4.58;;;;;;;11.84;71.53;93948.25;1630839;88;21105;-51
2022/05/23 05:41:45;;;;;;;5.90;3.65;;;;;;;12.06;71.00;93943.13;1606788;88;21126;-52
2022/05/23 05:44:18;;;;;;;5.28;3.22;;;;;;;12.26;69.15;93942.46;1605943;88;21090;-51
2022/05/23 05:46:50;;;;;;;3.10;2.80;;;;;;;12.44;68.44;93944.38;1625615;87;21066;-54
2022/05/23 05:49:23;;;;;;;6.55;3.02;;;;;;;12.65;66.36;93937.67;1628497;88;21072;-54
2022/05/23 05:51:51;;;;;;;5.17;3.05;;;;;;;12.80;65.00;93932.88;1630238;87;21255;-54
2022/05/23 05:54:23;;;;;;;2.80;2.60;;;;;;;12.95;63.70;93945.44;1629638;88;21102;-53
2022/05/23 05:57:04;;;;;;;3.98;2.77;;;;;;;13.05;62.99;93935.02;1630224;86;21069;-54
2022/05/23 05:59:31;;;;;;;3.00;2.65;;;;;;;13.11;61.47;93933.83;1628257;86;21510;-54
2022/05/23 06:01:58;;;;;;;8.03;2.60;;;;;;;13.17;60.74;93935.29;1625372;86;22289;-53
2022/05/23 06:04:27;;;;;;;12.25;4.47;;;;;;;13.26;59.83;93926.87;1628744;86;21311;-51
2022/05/23 06:12:33;;;;;;;3.92;3.37;;;;;;;13.67;58.02;93917.30;1627898;86;20974;-53
2022/05/23 06:15:02;;;;;;;5.97;2.87;;;;;;;13.77;57.24;93928.32;1619826;88;21064;-54
2022/05/23 06:17:29;;;;;;;16.82;10.45;;;;;;;13.82;57.17;93929.02;1603325;88;21308;-54
2022/05/23 06:19:56;;;;;;;8.00;3.70;;;;;;;13.86;57.28;93928.18;1626193;88;21078;-52
2022/05/23 06:22:26;;;;;;;12.05;2.90;;;;;;;13.92;56.73;93922.07;1628915;88;21036;-56
2022/05/23 06:25:11;;;;;;;3.30;2.17;;;;;;;13.99;56.92;93930.70;1624537;88;21093;-54
2022/05/23 06:27:38;;;;;;;2.98;1.98;;;;;;;14.12;53.79;93927.53;1604359;88;21053;-53
2022/05/23 06:30:10;;;;;;;1.90;1.70;;;;;;;14.17;49.35;93926.24;1627007;88;23044;-51
2022/05/23 06:32:48;;;;;;;4.78;3.40;;;;;;;14.22;48.32;93933.82;1627757;88;21074;-52
2022/05/23 06:35:16;;;;;;;3.37;2.42;;;;;;;14.29;46.91;93937.55;1625250;87;21128;-51
2022/05/23 06:37:45;;;;;;;3.22;2.85;;;;;;;14.33;46.20;93940.10;1627489;87;21106;-55
2022/05/23 06:40:14;;;;;;;4.70;2.85;;;;;;;14.27;46.20;93937.89;1597710;86;21008;-54
2022/05/23 06:43:01;;;;;;;6.20;3.92;;;;;;;14.31;45.08;93941.19;1626278;86;21167;-57
2022/05/23 06:45:32;;;;;;;9.30;5.28;;;;;;;14.37;44.64;93933.72;1622817;86;21084;-52
2022/05/23 06:48:17;;;;;;;4.65;3.65;;;;;;;14.43;45.58;93932.52;1633319;86;21462;-52
2022/05/23 06:50:49;;;;;;;15.35;7.00;;;;;;;14.55;44.73;93934.87;1634249;87;21017;-54
2022/05/23 06:53:19;;;;;;;8.20;4.15;;;;;;;14.68;44.77;93940.00;1614758;87;21417;-55
2022/05/23 06:55:48;;;;;;;7.62;3.05;;;;;;;14.81;43.48;93940.34;1632032;86;21189;-58
2022/05/23 06:58:17;;;;;;;3.40;2.62;;;;;;;14.86;44.78;93941.00;1612630;87;21013;-51
2022/05/23 07:00:44;;;;;;;7.87;4.55;;;;;;;14.90;45.38;93942.91;1635608;87;21052;-52
2022/05/23 07:03:12;;;;;;;3.83;2.95;;;;;;;14.94;45.81;93942.82;1635968;87;21076;-53
2022/05/23 07:14:16;;;;;;;3.55;2.45;;;;;;;15.27;45.27;93944.41;1634163;87;21227;-53
2022/05/23 07:16:43;;;;;;;2.87;2.33;;;;;;;15.27;44.92;93945.79;1635435;87;21076;-53
2022/05/23 07:19:10;;;;;;;4.40;3.15;;;;;;;15.24;44.61;93945.40;1637402;87;21347;-52
2022/05/23 07:21:38;;;;;;;6.12;3.10;;;;;;;15.21;44.50;93956.06;1634649;87;21401;-51
2022/05/23 07:24:11;;;;;;;4.08;3.50;;;;;;;15.13;44.29;93948.71;1635655;86;21095;-53
2022/05/23 07:26:40;;;;;;;4.95;3.10;;;;;;;15.15;44.94;93949.74;1635026;86;21108;-50
2022/05/23 07:29:08;;;;;;;9.38;3.00;;;;;;;15.28;44.95;93945.14;1635060;87;21045;-51
2022/05/23 07:31:37;;;;;;;7.65;5.25;;;;;;;15.33;43.88;93946.59;1633751;87;21020;-53
2022/05/23 07:34:03;;;;;;;3.67;3.12;;;;;;;15.33;44.61;93939.66;1635995;87;22350;-56
2022/05/23 07:36:32;;;;;;;3.75;2.65;;;;;;;15.44;45.22;93937.56;1634601;87;22228;-54
2022/05/23 07:39:01;;;;;;;6.28;2.33;;;;;;;15.58;44.42;93947.07;1612845;87;21429;-52
2022/05/23 07:41:44;;;;;;;2.50;2.15;;;;;;;15.66;43.89;93953.67;1614132;87;21954;-55
2022/05/23 07:44:11;;;;;;;2.50;1.75;;;;;;;15.70;44.17;93951.41;1635218;86;21279;-53
2022/05/23 07:46:41;;;;;;;4.90;3.02;;;;;;;15.71;44.94;93944.61;1613139;86;21701;-51
2022/05/23 07:49:08;;;;;;;1.85;1.60;;;;;;;15.82;45.36;93948.81;1632738;86;20989;-53
2022/05/23 07:51:36;;;;;;;5.40;2.50;;;;;;;15.88;45.58;93950.23;1625801;87;21066;-52
2022/05/23 08:02:23;;;;;;;2.62;2.00;;;;;;;16.11;46.33;93963.63;1634914;87;21044;-53
2022/05/23 08:04:58;;;;;;;3.15;1.92;;;;;;;16.07;46.08;93971.45;1613375;87;21577;-51
2022/05/23 08:07:29;;;;;;;1.40;1.30;;;;;;;16.01;46.29;93973.46;1635575;87;21026;-52
2022/05/23 08:10:00;;;;;;;3.62;1.92;;;;;;;15.94;46.33;93975.95;1598660;87;21005;-52
2022/05/23 08:12:29;;;;;;;6.78;2.87;;;;;;;15.85;46.59;93978.94;1635127;86;21225;-54
2022/05/23 08:14:57;;;;;;;2.50;2.30;;;;;;;15.71;46.67;93972.34;1636605;87;21220;-50
2022/05/23 08:17:25;;;;;;;5.70;2.30;;;;;;;15.58;47.22;93986.53;1635974;87;21009;-52
2022/05/23 08:19:54;;;;;;;2.50;2.22;;;;;;;15.47;47.81;93981.70;1634384;87;21582;-53
2022/05/23 08:22:23;;;;;;;4.42;2.10;;;;;;;15.40;47.97;93995.27;1631716;87;21013;-54
2022/05/23 08:24:52;;;;;;;6.53;2.45;;;;;;;15.38;48.31;93991.59;1612302;87;21184;-50
2022/05/23 08:27:20;;;;;;;3.72;2.15;;;;;;;15.46;48.77;93998.20;1634786;87;21020;-53
2022/05/23 08:29:49;;;;;;;28.05;3.45;;;;;;;15.59;48.93;93999.91;1616950;86;32828;-53
2022/05/23 08:32:17;;;;;;;13.70;2.22;;;;;;;15.67;49.05;93998.17;1636634;86;21001;-54
2022/05/23 08:34:47;;;;;;;1.75;1.62;;;;;;;15.78;48.69;93990.52;1634769;86;21124;-54
2022/05/23 08:37:15;;;;;;;4.70;1.70;;;;;;;15.88;48.51;93991.83;1636683;86;22432;-53
2022/05/23 08:39:42;;;;;;;4.53;1.67;;;;;;;15.98;48.94;93988.34;1634463;86;21952;-53
2022/05/23 08:42:34;;;;;;;20.25;3.25;;;;;;;16.04;48.91;93980.78;1610276;87;20997;-52
2022/05/23 08:45:25;;;;;;;2.60;2.40;;;;;;;16.08;48.75;93984.06;1636432;86;21075;-52
2022/05/23 08:48:19;;;;;;;2.45;2.08;;;;;;;16.21;48.88;93980.81;1636543;87;21014;-53
2022/05/23 08:51:17;;;;;;;1.42;1.32;;;;;;;16.37;48.34;93991.34;1625814;87;21148;-56
2022/05/23 08:59:01;;;;;;;3.15;1.55;;;;;;;16.80;45.47;93982.17;1786881;77;27415;-61
2022/05/23 09:01:53;;;;;;;1.70;1.35;;;;;;;17.02;44.94;93989.10;1764319;78;21111;-61
2022/05/23 09:04:43;;;;;;;3.62;1.57;;;;;;;17.13;44.42;93991.88;1760371;80;21909;-61
2022/05/23 09:07:21;;;;;;;2.83;1.92;;;;;;;17.12;45.29;93992.50;1768737;78;21174;-60
2022/05/23 09:09:49;;;;;;;4.80;1.80;;;;;;;17.06;45.36;93993.80;1760056;79;21167;-59
2022/05/23 09:12:16;;;;;;;2.92;1.77;;;;;;;17.05;45.60;93995.03;1759191;79;21035;-59
2022/05/23 09:14:45;;;;;;;1.77;1.67;;;;;;;17.08;46.25;93994.05;1746821;79;21049;-59
2022/05/23 09:17:25;;;;;;;4.22;2.15;;;;;;;17.09;46.17;93992.12;1771424;78;22295;-59
2022/05/23 09:20:15;;;;;;;2.22;2.02;;;;;;;17.10;45.45;93984.56;1775267;79;21097;-59
2022/05/23 09:22:50;;;;;;;2.40;1.77;;;;;;;17.17;45.26;93988.20;1755066;80;21006;-57
2022/05/23 09:25:25;;;;;;;3.92;1.60;;;;;;;17.18;44.88;93985.55;1775475;78;21100;-58
2022/05/23 09:28:29;;;;;;;3.80;2.05;;;;;;;17.14;45.33;93985.06;1757798;79;21521;-57
2022/05/23 09:31:18;;;;;;;3.98;2.75;;;;;;;17.14;45.22;93982.28;1766813;79;21256;-58
2022/05/23 09:36:41;;;;;;;5.00;1.77;;;;;;;17.33;44.49;93984.64;1799825;77;25693;-52
2022/05/23 09:39:11;;;;;;;4.45;1.95;;;;;;;17.21;44.58;93990.86;1772939;78;21631;-54
2022/05/23 09:47:48;;;;;;;3.37;2.20;;;;;;;17.02;45.99;93993.27;1769190;78;21549;-53
2022/05/23 09:50:31;;;;;;;2.80;2.02;;;;;;;16.97;46.31;93994.04;1774140;78;21081;-52
2022/05/23 09:53:01;;;;;;;7.90;2.15;;;;;;;16.94;46.14;93997.83;1773872;78;21645;-55
2022/05/23 09:55:31;;;;;;;2.20;2.00;;;;;;;16.86;46.85;93988.47;1770712;78;21749;-55
2022/05/23 09:58:04;;;;;;;2.35;2.10;;;;;;;16.69;46.59;93987.74;1772825;78;21024;-54
2022/05/23 10:00:36;;;;;;;7.28;2.70;;;;;;;16.50;48.13;93997.17;1769898;78;22090;-54
2022/05/23 10:03:16;;;;;;;2.92;2.22;;;;;;;16.37;48.08;93992.73;1775943;78;20994;-54
2022/05/23 10:05:50;;;;;;;3.95;2.58;;;;;;;16.19;49.15;93993.05;1776964;78;21015;-53
2022/05/23 10:08:35;;;;;;;3.15;2.85;;;;;;;16.00;49.55;93985.82;1777468;78;21220;-58
2022/05/23 10:11:32;;;;;;;3.90;2.75;;;;;;;15.90;50.00;93990.06;1777520;78;20984;-53
2022/05/23 10:14:07;;;;;;;6.40;2.95;;;;;;;15.81;49.93;93983.36;1770341;78;21018;-55
2022/05/23 10:16:54;;;;;;;4.45;3.08;;;;;;;15.82;50.66;93980.72;1763861;78;21674;-53
2022/05/23 10:19:38;;;;;;;6.40;4.75;;;;;;;15.95;50.44;93989.95;1779098;78;21632;-51
2022/05/23 10:22:21;;;;;;;4.42;3.08;;;;;;;16.11;50.43;93984.45;1780416;78;21876;-54
2022/05/23 10:25:01;;;;;;;3.27;2.98;;;;;;;16.25;50.03;93984.86;1779169;78;22115;-53
2022/05/23 10:27:37;;;;;;;3.95;3.00;;;;;;;16.25;49.04;93984.86;1780212;78;21127;-56
2022/05/23 10:30:06;;;;;;;3.87;2.60;;;;;;;16.17;49.38;93986.63;1733604;79;20986;-52
2022/05/23 10:32:48;;;;;;;4.05;3.58;;;;;;;16.07;50.16;93996.42;1772199;78;20997;-54
2022/05/23 10:35:23;;;;;;;6.55;4.85;;;;;;;15.98;50.45;93993.89;1757561;79;21120;-56
2022/05/23 10:37:51;;;;;;;3.75;2.87;;;;;;;15.90;50.48;93990.06;1772592;78;20905;-55
2022/05/23 10:43:20;;;;;;;3.27;2.85;;;;;;;15.74;51.54;93989.36;1774878;78;21905;-55
2022/05/23 10:45:50;;;;;;;;;;;;;;;15.63;52.12;93994.88;1782251;78;21033;-54
2022/05/23 10:48:38;;;;;;;4.30;3.50;;;;;;;15.52;52.20;93993.43;1776074;78;21243;-52
2022/05/23 10:51:35;;;;;;;3.20;2.40;;;;;;;15.38;51.84;93997.77;1774298;78;21017;-52
2022/05/23 10:54:34;;;;;;;5.90;2.92;;;;;;;15.22;52.04;93997.02;1776301;78;21094;-53
2022/05/23 10:57:20;;;;;;;2.83;2.62;;;;;;;15.08;52.48;93998.70;1775625;78;21053;-53
2022/05/23 11:00:10;;;;;;;2.70;2.40;;;;;;;14.98;52.86;93992.45;1778371;78;21905;-55
2022/05/23 11:03:04;;;;;;;4.67;2.37;;;;;;;14.86;53.35;93997.77;1761607;78;21248;-53
2022/05/23 11:05:39;;;;;;;3.77;2.60;;;;;;;14.79;53.88;94002.39;1756538;79;21051;-52
2022/05/23 11:08:37;;;;;;;3.02;2.50;;;;;;;14.73;54.12;94002.34;1763262;79;21109;-55
2022/05/23 11:11:11;;;;;;;3.42;3.12;;;;;;;14.67;54.62;94000.13;1766744;78;20994;-54
2022/05/23 11:13:54;;;;;;;2.67;2.42;;;;;;;14.58;54.83;94012.78;1767438;78;21011;-53
2022/05/23 11:16:35;;;;;;;2.83;2.42;;;;;;;14.52;55.04;94006.45;1770571;79;21125;-53
2022/05/23 11:19:16;;;;;;;4.58;2.80;;;;;;;14.46;55.08;94008.38;1768466;79;21077;-53
2022/05/23 11:22:03;;;;;;;5.30;2.80;;;;;;;14.40;55.50;94019.90;1782544;78;20989;-53
2022/05/23 11:24:43;;;;;;;5.40;2.87;;;;;;;14.34;55.85;94019.09;1780335;78;21142;-51
2022/05/23 11:35:55;;;;;;;3.45;3.10;;;;;;;14.16;56.57;94033.25;1755114;78;21724;-54
2022/05/23 11:38:24;;;;;;;2.65;2.45;;;;;;;14.08;56.57;94034.88;1779472;78;21079;-54
2022/05/23 11:41:10;;;;;;;5.22;2.80;;;;;;;13.99;57.27;94033.66;1757808;79;21182;-53
2022/05/23 11:43:37;;;;;;;5.35;3.75;;;;;;;13.90;57.52;94039.32;1764336;78;21102;-52
2022/05/23 11:46:08;;;;;;;3.65;3.35;;;;;;;13.78;57.98;94025.25;1775243;78;21043;-54
2022/05/23 11:48:47;;;;;;;4.92;2.90;;;;;;;13.68;58.04;94037.06;1762544;78;21096;-51
2022/05/23 11:51:19;;;;;;;5.35;3.55;;;;;;;13.59;58.24;94042.72;1765092;79;20996;-52
2022/05/23 11:53:58;;;;;;;3.00;2.80;;;;;;;13.55;58.40;94051.06;1770468;79;21025;-55
2022/05/23 11:56:38;;;;;;;3.30;3.00;;;;;;;13.57;58.30;94047.19;1770739;78;21274;-54
2022/05/23 11:59:07;;;;;;;4.28;3.00;;;;;;;13.58;58.25;94044.56;1775413;78;22375;-53
2022/05/23 12:01:34;;;;;;;3.10;2.80;;;;;;;13.58;58.26;94038.43;1763815;78;21524;-53
2022/05/23 12:04:06;;;;;;;3.05;2.72;;;;;;;13.59;57.69;94044.73;1761322;78;21622;-54
2022/05/23 12:06:41;;;;;;;2.80;2.60;;;;;;;13.59;57.82;94044.73;1787217;78;20974;-51
2022/05/23 12:09:17;;;;;;;;;;;;;;;13.64;57.89;94036.48;1787712;79;21092;-53
2022/05/23 12:11:51;;;;;;;7.12;2.37;;;;;;;13.73;58.16;94038.36;1768683;78;20460;-52
2022/05/23 12:14:27;;;;;;;2.70;2.50;;;;;;;13.84;57.72;94040.63;1725332;81;21226;-53
2022/05/23 12:17:05;;;;;;;2.67;2.40;;;;;;;13.95;57.55;94044.14;1765814;78;20973;-53
2022/05/23 12:19:43;;;;;;;2.60;2.40;;;;;;;14.06;57.18;94045.66;1767847;78;22053;-52
2022/05/23 12:22:36;;;;;;;3.00;2.80;;;;;;;14.13;57.10;94040.47;1759540;78;21594;-54
2022/05/23 12:25:17;;;;;;;2.92;2.67;;;;;;;14.22;57.00;94038.20;1766610;78;21078;-53
2022/05/23 12:27:52;;;;;;;4.15;2.33;;;;;;;14.32;56.25;94038.94;1696630;80;23435;-52
2022/05/23 12:30:24;;;;;;;3.20;2.55;;;;;;;14.39;56.25;94044.67;1698125;82;21074;-51
2022/05/23 12:33:02;;;;;;;6.03;3.22;;;;;;;14.46;56.14;94045.75;1690666;82;21025;-52
2022/05/23 12:35:48;;;;;;;6.37;3.15;;;;;;;14.60;55.66;94052.44;1661643;83;21190;-50
2022/05/23 12:38:47;;;;;;;2.50;2.30;;;;;;;14.64;55.51;94048.18;1660372;83;21555;-53
2022/05/23 12:41:56;;;;;;;2.83;2.60;;;;;;;14.67;55.28;94047.20;1696338;81;21556;-53
2022/05/23 12:44:31;;;;;;;4.08;3.67;;;;;;;14.67;55.96;94047.20;1698399;82;21030;-52
2022/05/23 12:47:28;;;;;;;2.67;2.45;;;;;;;14.82;56.05;94043.69;1664858;82;21068;-58
2022/05/23 12:50:18;;;;;;;3.10;2.80;;;;;;;15.03;55.59;94049.27;1673819;83;21380;-51
2022/05/23 12:53:07;;;;;;;2.30;2.10;;;;;;;15.27;55.33;94053.09;1698818;82;22046;-52
2022/05/23 12:55:59;;;;;;;3.00;2.70;;;;;;;15.47;55.41;94054.38;1695603;82;21149;-53
2022/05/23 12:59:07;;;;;;;4.47;2.40;;;;;;;15.59;54.18;94059.52;1695708;82;21102;-52
2022/05/23 13:01:37;;;;;;;3.50;2.85;;;;;;;15.58;53.66;94056.59;1689758;82;21078;-55
2022/05/23 13:04:15;;;;;;;3.62;2.60;;;;;;;15.53;54.46;94060.09;1672809;82;21261;-53
2022/05/23 13:07:01;;;;;;;3.30;3.00;;;;;;;15.52;54.33;94052.30;1687953;83;21344;-55
2022/05/23 13:09:44;;;;;;;4.60;2.98;;;;;;;15.47;54.51;94049.61;1696644;82;21024;-55